CheckWX is a tool to help pilots better visualize weather data.  It is not intended as a substitute for an official pre-flight weather briefing.

06:58:15 UTC

KHOP TAF
Campbell AAF (Fort Campbell) Airport
Fort Campbell/Hopkinsville, Kentucky, USA
TAF KHOP 190000Z 1900/2006 26009KT 9999 FEW030 QNH2982INS BECMG 1907/1908 VRB06KT 8000 BR BKN020 QNH2975INS BECMG 1912/1913 24012KT 8000 -SHRA BKN030 OVC050 QNH2962INS TEMPO 1920/2002 22025G35KT 4800 TSRA OVC030CB TX30/1900Z TN20/1912Z

Jun-19@
00:00 UTC

Jun-19 @ 00:00 UTC

Jun-19@
07:00 UTC

Jun-19 @ 07:00 UTC

TAF KHOP 190000Z 1900/2006 26009KT 9999 FEW030 QNH2982INS
Wind
  • 260° at 9 KTS
Cloud Levels
  • Few at 3,000' AGL

Jun-19@
07:00 UTC

Jun-19 @ 07:00 UTC

Jun-19@
12:00 UTC

Jun-19 @ 12:00 UTC

BECMG 1907/1908 VRB06KT 8000 BR BKN020 QNH2975INS

Becoming

Becoming Conditions expected by Wed, Jun 19, 2019 @ 08:00 UTC

Wind
  • Variable at 6 KTS
Conditions
Mist
Cloud Levels
  • Broken at 2,000' AGL

Jun-19@
12:00 UTC

Jun-19 @ 12:00 UTC

Jun-20@
06:00 UTC

Jun-20 @ 06:00 UTC

BECMG 1912/1913 24012KT 8000 -SHRA BKN030 OVC050 QNH2962INS

Becoming

Becoming Conditions expected by Wed, Jun 19, 2019 @ 13:00 UTC

Wind
  • 240° at 12 KTS
Conditions
Light Rain
Cloud Levels
  • Broken at 3,000' AGL
  • Overcast at 5,000' AGL

Jun-19@
20:00 UTC

Jun-19 @ 20:00 UTC

Jun-20@
02:00 UTC

Jun-20 @ 02:00 UTC

TEMPO 1920/2002 22025G35KT 4800 TSRA OVC030CB TX30/1900Z TN20/1912Z

Temporary

Temporary Changes expected for less than half the time period

Wind
  • 220° at 25 KTS
  • {Gusting to 35 KTS
Conditions
Thunderstorm, Rain
Cloud Levels
  • Overcast at 3,000' AGL